sensor_id;sensor_type;location;lat;lon;timestamp;pressure;altitude;pressure_sealevel;temperature;humidity
25232;BME280;13176;51.140;6.290;2023-04-28T00:02:01;100462.91;;;15.01;56.51
25232;BME280;13176;51.140;6.290;2023-04-28T00:04:28;100582.34;;;15.43;58.03
25232;BME280;13176;51.140;6.290;2023-04-28T00:06:54;100587.31;;;15.50;59.17
25232;BME280;13176;51.140;6.290;2023-04-28T00:09:21;100543.59;;;15.22;59.24
25232;BME280;13176;51.140;6.290;2023-04-28T00:11:47;100560.63;;;15.36;59.47
25232;BME280;13176;51.140;6.290;2023-04-28T00:14:14;100405.97;;;14.53;60.07
25232;BME280;13176;51.140;6.290;2023-04-28T00:16:41;100544.66;;;15.42;59.73
25232;BME280;13176;51.140;6.290;2023-04-28T00:19:07;100560.63;;;15.61;59.93
25232;BME280;13176;51.140;6.290;2023-04-28T00:21:34;100553.94;;;15.52;59.75
25232;BME280;13176;51.140;6.290;2023-04-28T00:24:00;100542.22;;;15.36;59.29
25232;BME280;13176;51.140;6.290;2023-04-28T00:26:27;100528.81;;;15.19;61.25
25232;BME280;13176;51.140;6.290;2023-04-28T00:28:53;100537.94;;;15.34;60.21
25232;BME280;13176;51.140;6.290;2023-04-28T00:31:20;100500.72;;;15.20;60.08
25232;BME280;13176;51.140;6.290;2023-04-28T00:33:46;100494.75;;;15.16;61.18
25232;BME280;13176;51.140;6.290;2023-04-28T00:36:12;100449.91;;;14.96;60.36
25232;BME280;13176;51.140;6.290;2023-04-28T00:38:39;100523.81;;;15.36;60.00
25232;BME280;13176;51.140;6.290;2023-04-28T00:41:05;100526.56;;;15.33;60.68
25232;BME280;13176;51.140;6.290;2023-04-28T00:43:43;100496.56;;;15.14;60.21
25232;BME280;13176;51.140;6.290;2023-04-28T00:46:12;100510.09;;;15.04;60.67
25232;BME280;13176;51.140;6.290;2023-04-28T00:48:43;100407.38;;;14.37;60.53
25232;BME280;13176;51.140;6.290;2023-04-28T00:51:09;100541.94;;;15.19;61.02
25232;BME280;13176;51.140;6.290;2023-04-28T00:53:36;100517.19;;;15.00;61.79
25232;BME280;13176;51.140;6.290;2023-04-28T00:56:03;100392.75;;;14.30;63.97
25232;BME280;13176;51.140;6.290;2023-04-28T00:58:30;100507.41;;;15.05;64.32
25232;BME280;13176;51.140;6.290;2023-04-28T01:01:05;100540.47;;;15.37;63.30
25232;BME280;13176;51.140;6.290;2023-04-28T01:03:34;100514.97;;;15.14;63.88
25232;BME280;13176;51.140;6.290;2023-04-28T01:06:04;100529.28;;;15.30;64.24
25232;BME280;13176;51.140;6.290;2023-04-28T01:08:31;100544.34;;;15.27;64.86
25232;BME280;13176;51.140;6.290;2023-04-28T01:10:58;100538.63;;;15.14;64.82
25232;BME280;13176;51.140;6.290;2023-04-28T01:13:24;100521.75;;;14.95;64.55
25232;BME280;13176;51.140;6.290;2023-04-28T01:15:51;100547.03;;;14.99;66.35
25232;BME280;13176;51.140;6.290;2023-04-28T01:18:18;100523.91;;;14.84;64.92
25232;BME280;13176;51.140;6.290;2023-04-28T01:20:44;100484.75;;;14.53;66.37
25232;BME280;13176;51.140;6.290;2023-04-28T01:23:15;100470.91;;;14.48;66.38
25232;BME280;13176;51.140;6.290;2023-04-28T01:25:42;100480.94;;;14.61;67.46
25232;BME280;13176;51.140;6.290;2023-04-28T01:28:09;100528.81;;;14.69;67.82
25232;BME280;13176;51.140;6.290;2023-04-28T01:30:36;100534.72;;;14.76;69.56
25232;BME280;13176;51.140;6.290;2023-04-28T01:33:02;100441.00;;;14.26;70.01
25232;BME280;13176;51.140;6.290;2023-04-28T01:35:29;100490.47;;;14.64;69.16
25232;BME280;13176;51.140;6.290;2023-04-28T01:37:56;100494.41;;;14.77;69.04
25232;BME280;13176;51.140;6.290;2023-04-28T01:40:23;100492.50;;;14.82;69.38
25232;BME280;13176;51.140;6.290;2023-04-28T01:42:49;100487.03;;;14.87;69.82
25232;BME280;13176;51.140;6.290;2023-04-28T01:45:16;100462.78;;;14.80;69.97
25232;BME280;13176;51.140;6.290;2023-04-28T01:47:42;100395.47;;;14.53;69.26
25232;BME280;13176;51.140;6.290;2023-04-28T01:50:09;100405.88;;;14.56;68.98
25232;BME280;13176;51.140;6.290;2023-04-28T01:52:35;100465.13;;;14.87;69.11
25232;BME280;13176;51.140;6.290;2023-04-28T01:55:02;100384.78;;;14.33;69.58
25232;BME280;13176;51.140;6.290;2023-04-28T01:57:29;100336.41;;;14.15;69.14
25232;BME280;13176;51.140;6.290;2023-04-28T01:59:55;100329.34;;;14.17;69.61
25232;BME280;13176;51.140;6.290;2023-04-28T02:02:21;100444.44;;;14.78;69.48
25232;BME280;13176;51.140;6.290;2023-04-28T02:04:48;100403.47;;;14.48;68.70
25232;BME280;13176;51.140;6.290;2023-04-28T02:07:14;100340.09;;;14.08;68.46
25232;BME280;13176;51.140;6.290;2023-04-28T02:09:41;100463.31;;;14.89;69.02
25232;BME280;13176;51.140;6.290;2023-04-28T02:12:07;100456.56;;;14.82;68.65
25232;BME280;13176;51.140;6.290;2023-04-28T02:14:33;100458.84;;;14.92;69.17
25232;BME280;13176;51.140;6.290;2023-04-28T02:17:00;100480.91;;;15.11;68.96
25232;BME280;13176;51.140;6.290;2023-04-28T02:19:28;100492.16;;;15.15;69.66
25232;BME280;13176;51.140;6.290;2023-04-28T02:21:54;100426.97;;;14.77;69.11
25232;BME280;13176;51.140;6.290;2023-04-28T02:24:21;100422.78;;;14.72;69.49
25232;BME280;13176;51.140;6.290;2023-04-28T02:26:47;100428.03;;;14.72;70.04
25232;BME280;13176;51.140;6.290;2023-04-28T02:29:14;100412.81;;;14.57;70.63
25232;BME280;13176;51.140;6.290;2023-04-28T02:31:40;100365.75;;;14.26;70.89
25232;BME280;13176;51.140;6.290;2023-04-28T02:34:07;100332.88;;;14.16;70.30
25232;BME280;13176;51.140;6.290;2023-04-28T02:36:33;100348.09;;;14.31;69.82
25232;BME280;13176;51.140;6.290;2023-04-28T02:38:59;100444.09;;;14.88;70.74
25232;BME280;13176;51.140;6.290;2023-04-28T02:41:26;100453.56;;;14.92;70.79
25232;BME280;13176;51.140;6.290;2023-04-28T02:43:53;100448.53;;;14.86;70.78
25232;BME280;13176;51.140;6.290;2023-04-28T02:46:19;100427.94;;;14.75;70.53
25232;BME280;13176;51.140;6.290;2023-04-28T02:48:45;100440.66;;;14.86;70.22
25232;BME280;13176;51.140;6.290;2023-04-28T02:51:12;100486.59;;;14.99;70.59
25232;BME280;13176;51.140;6.290;2023-04-28T02:53:39;100458.84;;;14.92;71.40
25232;BME280;13176;51.140;6.290;2023-04-28T02:56:06;100445.19;;;15.06;70.73
25232;BME280;13176;51.140;6.290;2023-04-28T02:58:32;100442.59;;;15.04;70.23
25232;BME280;13176;51.140;6.290;2023-04-28T03:00:59;100436.53;;;15.02;70.32
25232;BME280;13176;51.140;6.290;2023-04-28T03:03:25;100389.34;;;14.77;71.00
25232;BME280;13176;51.140;6.290;2023-04-28T03:05:52;100388.63;;;14.96;70.35
25232;BME280;13176;51.140;6.290;2023-04-28T03:08:18;100433.91;;;15.27;70.40
25232;BME280;13176;51.140;6.290;2023-04-28T03:10:46;100425.50;;;15.17;70.59
25232;BME280;13176;51.140;6.290;2023-04-28T03:13:12;100331.59;;;14.75;70.96
25232;BME280;13176;51.140;6.290;2023-04-28T03:15:38;100377.94;;;15.00;70.59
25232;BME280;13176;51.140;6.290;2023-04-28T03:18:05;100357.03;;;14.97;70.38
25232;BME280;13176;51.140;6.290;2023-04-28T03:20:31;100303.06;;;14.66;70.09
25232;BME280;13176;51.140;6.290;2023-04-28T03:22:58;100405.47;;;15.38;69.22
25232;BME280;13176;51.140;6.290;2023-04-28T03:25:24;100325.75;;;14.91;69.37
25232;BME280;13176;51.140;6.290;2023-04-28T03:27:50;100346.53;;;15.20;69.32
25232;BME280;13176;51.140;6.290;2023-04-28T03:30:17;100391.03;;;15.26;70.12
25232;BME280;13176;51.140;6.290;2023-04-28T03:32:43;100359.03;;;15.14;70.61
25232;BME280;13176;51.140;6.290;2023-04-28T03:35:10;100279.75;;;14.80;68.96
25232;BME280;13176;51.140;6.290;2023-04-28T03:37:36;100353.50;;;15.44;68.20
25232;BME280;13176;51.140;6.290;2023-04-28T03:40:03;100365.00;;;15.63;67.39
25232;BME280;13176;51.140;6.290;2023-04-28T03:42:29;100309.81;;;15.40;67.29
25232;BME280;13176;51.140;6.290;2023-04-28T03:44:56;100218.41;;;14.81;66.92
25232;BME280;13176;51.140;6.290;2023-04-28T03:47:22;100306.09;;;15.23;67.34
25232;BME280;13176;51.140;6.290;2023-04-28T03:49:48;100353.59;;;15.41;67.20
25232;BME280;13176;51.140;6.290;2023-04-28T03:52:15;100320.34;;;15.40;66.44
25232;BME280;13176;51.140;6.290;2023-04-28T03:54:41;100354.47;;;15.42;67.79
25232;BME280;13176;51.140;6.290;2023-04-28T03:57:08;100339.91;;;15.33;68.09
25232;BME280;13176;51.140;6.290;2023-04-28T03:59:34;100271.72;;;14.84;68.51
25232;BME280;13176;51.140;6.290;2023-04-28T04:02:01;100368.47;;;15.42;68.21
25232;BME280;13176;51.140;6.290;2023-04-28T04:04:27;100288.72;;;14.97;68.71
25232;BME280;13176;51.140;6.290;2023-04-28T04:06:54;100261.44;;;14.79;69.51
25232;BME280;13176;51.140;6.290;2023-04-28T04:09:21;100365.00;;;15.42;69.79
25232;BME280;13176;51.140;6.290;2023-04-28T04:11:47;100366.72;;;15.43;69.89
25232;BME280;13176;51.140;6.290;2023-04-28T04:14:13;100280.16;;;14.92;70.02
25232;BME280;13176;51.140;6.290;2023-04-28T04:16:40;100266.81;;;14.76;70.72
25232;BME280;13176;51.140;6.290;2023-04-28T04:19:07;100296.78;;;14.93;71.14
25232;BME280;13176;51.140;6.290;2023-04-28T04:21:33;100365.00;;;15.42;70.18
25232;BME280;13176;51.140;6.290;2023-04-28T04:23:59;100357.72;;;15.48;69.84
25232;BME280;13176;51.140;6.290;2023-04-28T04:26:26;100341.88;;;15.28;70.23
25232;BME280;13176;51.140;6.290;2023-04-28T04:28:52;100275.75;;;14.93;70.42
25232;BME280;13176;51.140;6.290;2023-04-28T04:31:19;100342.78;;;15.27;71.41
25232;BME280;13176;51.140;6.290;2023-04-28T04:33:45;100370.19;;;15.43;71.92
25232;BME280;13176;51.140;6.290;2023-04-28T04:36:15;100311.78;;;15.12;72.11
25232;BME280;13176;51.140;6.290;2023-04-28T04:38:43;100314.50;;;15.11;72.16
25232;BME280;13176;51.140;6.290;2023-04-28T04:41:09;100259.72;;;14.78;72.73
25232;BME280;13176;51.140;6.290;2023-04-28T04:43:36;100360.81;;;15.36;71.74
25232;BME280;13176;51.140;6.290;2023-04-28T04:46:02;100343.91;;;15.20;72.08
25232;BME280;13176;51.140;6.290;2023-04-28T04:48:29;100371.44;;;15.33;73.12
25232;BME280;13176;51.140;6.290;2023-04-28T04:50:55;100367.38;;;15.25;72.96
25232;BME280;13176;51.140;6.290;2023-04-28T04:53:22;100365.56;;;15.27;73.89
25232;BME280;13176;51.140;6.290;2023-04-28T04:55:48;100378.31;;;15.37;73.64
25232;BME280;13176;51.140;6.290;2023-04-28T04:58:15;100351.66;;;15.23;73.91
25232;BME280;13176;51.140;6.290;2023-04-28T05:00:41;100318.59;;;14.95;74.61
25232;BME280;13176;51.140;6.290;2023-04-28T05:03:08;100268.28;;;14.82;74.33
25232;BME280;13176;51.140;6.290;2023-04-28T05:05:34;100321.56;;;15.09;74.48
25232;BME280;13176;51.140;6.290;2023-04-28T05:08:01;100355.66;;;15.33;75.15
25232;BME280;13176;51.140;6.290;2023-04-28T05:10:27;100341.06;;;15.25;75.05
25232;BME280;13176;51.140;6.290;2023-04-28T05:12:54;100239.06;;;14.69;75.13
25232;BME280;13176;51.140;6.290;2023-04-28T05:15:20;100335.09;;;15.21;75.17
25232;BME280;13176;51.140;6.290;2023-04-28T05:17:47;100291.22;;;15.00;75.22
25232;BME280;13176;51.140;6.290;2023-04-28T05:20:13;100260.56;;;14.78;75.26
25232;BME280;13176;51.140;6.290;2023-04-28T05:22:40;100314.41;;;15.12;75.93
25232;BME280;13176;51.140;6.290;2023-04-28T05:25:07;100311.47;;;15.20;76.25
25232;BME280;13176;51.140;6.290;2023-04-28T05:27:33;100302.06;;;15.14;74.16
25232;BME280;13176;51.140;6.290;2023-04-28T05:30:03;100342.25;;;15.41;74.04
25232;BME280;13176;51.140;6.290;2023-04-28T05:32:29;100312.16;;;15.26;74.56
25232;BME280;13176;51.140;6.290;2023-04-28T05:34:55;100342.25;;;15.62;73.62
25232;BME280;13176;51.140;6.290;2023-04-28T05:37:22;100319.97;;;15.49;73.66
25232;BME280;13176;51.140;6.290;2023-04-28T05:39:48;100256.13;;;15.24;72.95
25232;BME280;13176;51.140;6.290;2023-04-28T05:42:15;100206.59;;;14.92;73.45
25232;BME280;13176;51.140;6.290;2023-04-28T05:44:41;100260.63;;;15.21;72.71
25232;BME280;13176;51.140;6.290;2023-04-28T05:47:08;100220.16;;;15.03;73.60
25232;BME280;13176;51.140;6.290;2023-04-28T05:49:36;100295.53;;;15.47;73.72
25232;BME280;13176;51.140;6.290;2023-04-28T05:52:02;100320.81;;;15.71;72.88
25232;BME280;13176;51.140;6.290;2023-04-28T05:54:29;100335.66;;;15.74;73.90
25232;BME280;13176;51.140;6.290;2023-04-28T05:56:56;100234.66;;;15.13;73.52
25232;BME280;13176;51.140;6.290;2023-04-28T05:59:26;100310.63;;;15.42;74.60
25232;BME280;13176;51.140;6.290;2023-04-28T06:01:53;100250.72;;;15.06;74.14
25232;BME280;13176;51.140;6.290;2023-04-28T06:04:19;100237.53;;;15.07;73.07
25232;BME280;13176;51.140;6.290;2023-04-28T06:06:47;100276.78;;;15.33;72.45
25232;BME280;13176;51.140;6.290;2023-04-28T06:09:13;100350.19;;;15.82;71.82
25232;BME280;13176;51.140;6.290;2023-04-28T06:11:40;100336.31;;;15.79;72.32
25232;BME280;13176;51.140;6.290;2023-04-28T06:14:06;100288.31;;;15.52;72.42
25232;BME280;13176;51.140;6.290;2023-04-28T06:16:33;100292.44;;;15.58;71.28
25232;BME280;13176;51.140;6.290;2023-04-28T06:18:59;100335.44;;;15.78;71.49
25232;BME280;13176;51.140;6.290;2023-04-28T06:21:26;100314.72;;;15.71;72.13
25232;BME280;13176;51.140;6.290;2023-04-28T06:23:53;100268.41;;;15.45;70.80
25232;BME280;13176;51.140;6.290;2023-04-28T06:26:20;100210.63;;;15.22;72.63
25232;BME280;13176;51.140;6.290;2023-04-28T06:28:46;100331.91;;;15.79;71.51
25232;BME280;13176;51.140;6.290;2023-04-28T06:31:13;100313.13;;;15.67;73.38
25232;BME280;13176;51.140;6.290;2023-04-28T06:33:39;100284.50;;;15.59;72.51
25232;BME280;13176;51.140;6.290;2023-04-28T06:36:06;100263.38;;;15.41;71.75
25232;BME280;13176;51.140;6.290;2023-04-28T06:38:33;100310.94;;;15.56;72.63
25232;BME280;13176;51.140;6.290;2023-04-28T06:40:59;100337.22;;;15.78;71.92
25232;BME280;13176;51.140;6.290;2023-04-28T06:43:25;100344.81;;;15.64;72.21
25232;BME280;13176;51.140;6.290;2023-04-28T06:45:52;100214.41;;;14.94;72.24
25232;BME280;13176;51.140;6.290;2023-04-28T06:48:18;100328.19;;;15.63;73.43
25232;BME280;13176;51.140;6.290;2023-04-28T06:50:45;100290.00;;;15.53;71.99
25232;BME280;13176;51.140;6.290;2023-04-28T06:53:11;100352.00;;;16.01;71.76
25232;BME280;13176;51.140;6.290;2023-04-28T06:55:38;100333.91;;;15.94;72.23
25232;BME280;13176;51.140;6.290;2023-04-28T06:58:04;100341.44;;;16.23;71.73
25232;BME280;13176;51.140;6.290;2023-04-28T07:00:31;100328.66;;;16.14;72.04
25232;BME280;13176;51.140;6.290;2023-04-28T07:02:57;100316.53;;;16.10;72.26
25232;BME280;13176;51.140;6.290;2023-04-28T07:05:24;100243.28;;;15.60;73.07
25232;BME280;13176;51.140;6.290;2023-04-28T07:07:51;100309.31;;;15.95;72.75
25232;BME280;13176;51.140;6.290;2023-04-28T07:10:17;100323.75;;;16.05;71.93
25232;BME280;13176;51.140;6.290;2023-04-28T07:12:45;100315.16;;;16.01;72.04
25232;BME280;13176;51.140;6.290;2023-04-28T07:15:11;100284.16;;;15.88;71.76
25232;BME280;13176;51.140;6.290;2023-04-28T07:17:38;100201.34;;;15.35;71.82
25232;BME280;13176;51.140;6.290;2023-04-28T07:20:05;100262.94;;;15.71;72.44
25232;BME280;13176;51.140;6.290;2023-04-28T07:22:32;100316.28;;;15.96;72.56
25232;BME280;13176;51.140;6.290;2023-04-28T07:24:58;100347.63;;;16.02;73.00
25232;BME280;13176;51.140;6.290;2023-04-28T07:27:25;100273.75;;;15.65;72.88
25232;BME280;13176;51.140;6.290;2023-04-28T07:29:51;100334.38;;;15.62;75.72
25232;BME280;13176;51.140;6.290;2023-04-28T07:32:18;100299.06;;;15.02;78.75
25232;BME280;13176;51.140;6.290;2023-04-28T07:34:45;100338.25;;;15.08;80.49
25232;BME280;13176;51.140;6.290;2023-04-28T07:37:11;100223.31;;;14.46;80.32
25232;BME280;13176;51.140;6.290;2023-04-28T07:39:38;100292.50;;;15.12;80.35
25232;BME280;13176;51.140;6.290;2023-04-28T07:42:05;100216.91;;;14.76;81.24
25232;BME280;13176;51.140;6.290;2023-04-28T07:44:32;100324.75;;;15.61;80.38
25232;BME280;13176;51.140;6.290;2023-04-28T07:46:59;100334.16;;;15.88;79.01
25232;BME280;13176;51.140;6.290;2023-04-28T07:49:29;100188.97;;;15.16;78.72
25232;BME280;13176;51.140;6.290;2023-04-28T07:51:55;100337.63;;;16.30;78.28
25232;BME280;13176;51.140;6.290;2023-04-28T07:54:22;100335.00;;;16.50;77.27
25232;BME280;13176;51.140;6.290;2023-04-28T07:56:49;100301.59;;;16.30;75.84
25232;BME280;13176;51.140;6.290;2023-04-28T07:59:15;100228.44;;;15.98;75.91
25232;BME280;13176;51.140;6.290;2023-04-28T08:01:41;100254.94;;;16.14;76.13
25232;BME280;13176;51.140;6.290;2023-04-28T08:04:08;100280.22;;;16.58;76.16
25232;BME280;13176;51.140;6.290;2023-04-28T08:06:35;100295.56;;;16.87;75.20
25232;BME280;13176;51.140;6.290;2023-04-28T08:09:01;100173.34;;;16.14;75.65
25232;BME280;13176;51.140;6.290;2023-04-28T08:11:29;100319.72;;;17.14;75.60
25232;BME280;13176;51.140;6.290;2023-04-28T08:13:55;100223.59;;;16.85;75.43
25232;BME280;13176;51.140;6.290;2023-04-28T08:16:26;100307.19;;;17.38;75.16
25232;BME280;13176;51.140;6.290;2023-04-28T08:18:53;100248.34;;;17.01;74.16
25232;BME280;13176;51.140;6.290;2023-04-28T08:21:20;100291.50;;;17.16;74.54
25232;BME280;13176;51.140;6.290;2023-04-28T08:23:46;100312.59;;;17.16;75.32
25232;BME280;13176;51.140;6.290;2023-04-28T08:26:13;100252.25;;;16.74;75.10
25232;BME280;13176;51.140;6.290;2023-04-28T08:28:39;100343.94;;;17.22;76.30
25232;BME280;13176;51.140;6.290;2023-04-28T08:31:05;100339.09;;;17.13;75.87
25232;BME280;13176;51.140;6.290;2023-04-28T08:33:32;100254.94;;;16.54;77.04
25232;BME280;13176;51.140;6.290;2023-04-28T08:35:58;100355.09;;;17.11;78.14
25232;BME280;13176;51.140;6.290;2023-04-28T08:38:25;100305.16;;;16.69;78.96
25232;BME280;13176;51.140;6.290;2023-04-28T08:40:52;100256.25;;;16.44;80.45
25232;BME280;13176;51.140;6.290;2023-04-28T08:43:18;100334.69;;;16.96;82.31
25232;BME280;13176;51.140;6.290;2023-04-28T08:45:46;100302.25;;;16.94;81.20
25232;BME280;13176;51.140;6.290;2023-04-28T08:48:18;100354.44;;;17.24;80.50
25232;BME280;13176;51.140;6.290;2023-04-28T08:50:50;100350.00;;;17.24;80.42
25232;BME280;13176;51.140;6.290;2023-04-28T08:53:23;100309.16;;;16.96;80.71
25232;BME280;13176;51.140;6.290;2023-04-28T08:55:55;100233.81;;;16.74;81.82
25232;BME280;13176;51.140;6.290;2023-04-28T08:58:23;100286.97;;;17.02;81.95
25232;BME280;13176;51.140;6.290;2023-04-28T09:00:57;100352.38;;;17.30;83.75
25232;BME280;13176;51.140;6.290;2023-04-28T09:03:25;100344.97;;;17.20;82.90
25232;BME280;13176;51.140;6.290;2023-04-28T09:05:52;100307.97;;;17.03;84.51
25232;BME280;13176;51.140;6.290;2023-04-28T09:08:18;100319.16;;;17.26;83.71
25232;BME280;13176;51.140;6.290;2023-04-28T09:10:46;100282.25;;;16.90;84.38
25232;BME280;13176;51.140;6.290;2023-04-28T09:13:24;100337.22;;;17.35;83.25
25232;BME280;13176;51.140;6.290;2023-04-28T09:15:58;100311.25;;;17.26;84.00
25232;BME280;13176;51.140;6.290;2023-04-28T09:18:25;100266.00;;;16.99;84.13
25232;BME280;13176;51.140;6.290;2023-04-28T09:20:51;100328.88;;;17.44;84.93
25232;BME280;13176;51.140;6.290;2023-04-28T09:23:19;100256.25;;;17.01;85.27
25232;BME280;13176;51.140;6.290;2023-04-28T09:28:22;100333.69;;;17.53;85.00
25232;BME280;13176;51.140;6.290;2023-04-28T09:30:49;100314.13;;;17.40;85.39
25232;BME280;13176;51.140;6.290;2023-04-28T09:33:16;100352.66;;;17.61;86.68
25232;BME280;13176;51.140;6.290;2023-04-28T09:35:43;100313.19;;;17.41;87.49
25232;BME280;13176;51.140;6.290;2023-04-28T09:38:14;100339.97;;;17.69;86.84
25232;BME280;13176;51.140;6.290;2023-04-28T09:43:33;100316.94;;;17.90;87.88
25232;BME280;13176;51.140;6.290;2023-04-28T09:46:02;100341.56;;;18.07;88.89
25232;BME280;13176;51.140;6.290;2023-04-28T09:48:30;100343.97;;;17.95;90.74
25232;BME280;13176;51.140;6.290;2023-04-28T09:51:01;100323.38;;;18.01;88.29
25232;BME280;13176;51.140;6.290;2023-04-28T09:53:29;100323.38;;;17.84;89.29
25232;BME280;13176;51.140;6.290;2023-04-28T09:55:57;100332.88;;;18.05;90.19
25232;BME280;13176;51.140;6.290;2023-04-28T09:58:25;100234.59;;;17.29;90.18
25232;BME280;13176;51.140;6.290;2023-04-28T10:00:54;100283.41;;;17.39;91.18
25232;BME280;13176;51.140;6.290;2023-04-28T10:03:26;100348.72;;;18.05;90.28
25232;BME280;13176;51.140;6.290;2023-04-28T10:05:55;100342.03;;;17.98;90.14
25232;BME280;13176;51.140;6.290;2023-04-28T10:08:24;100285.06;;;17.59;89.88
25232;BME280;13176;51.140;6.290;2023-04-28T10:10:51;100312.38;;;18.10;89.26
25232;BME280;13176;51.140;6.290;2023-04-28T10:13:21;100294.78;;;17.92;87.61
25232;BME280;13176;51.140;6.290;2023-04-28T10:15:49;100350.50;;;18.22;88.07
25232;BME280;13176;51.140;6.290;2023-04-28T10:18:16;100309.06;;;17.88;89.28
25232;BME280;13176;51.140;6.290;2023-04-28T10:20:44;100304.00;;;18.19;89.01
25232;BME280;13176;51.140;6.290;2023-04-28T10:23:50;100339.84;;;18.74;87.66
25232;BME280;13176;51.140;6.290;2023-04-28T10:26:20;100314.66;;;18.99;85.07
25232;BME280;13176;51.140;6.290;2023-04-28T10:28:50;100328.41;;;19.23;82.68
25232;BME280;13176;51.140;6.290;2023-04-28T10:31:18;100331.66;;;19.28;83.42
25232;BME280;13176;51.140;6.290;2023-04-28T10:33:48;100304.66;;;19.37;81.63
25232;BME280;13176;51.140;6.290;2023-04-28T10:36:51;100272.84;;;18.90;83.04
25232;BME280;13176;51.140;6.290;2023-04-28T10:39:20;100218.34;;;18.88;81.68
25232;BME280;13176;51.140;6.290;2023-04-28T10:41:46;100300.31;;;18.88;83.25
25232;BME280;13176;51.140;6.290;2023-04-28T10:47:06;100274.97;;;18.51;83.75
25232;BME280;13176;51.140;6.290;2023-04-28T11:00:41;100294.81;;;20.14;77.15
25232;BME280;13176;51.140;6.290;2023-04-28T11:03:08;100311.94;;;20.52;76.17
25232;BME280;13176;51.140;6.290;2023-04-28T11:05:35;100288.25;;;20.35;76.78
25232;BME280;13176;51.140;6.290;2023-04-28T11:11:12;100311.81;;;20.97;73.35
25232;BME280;13176;51.140;6.290;2023-04-28T11:13:42;100312.13;;;20.49;74.13
25232;BME280;13176;51.140;6.290;2023-04-28T11:16:08;100274.41;;;20.30;73.56
25232;BME280;13176;51.140;6.290;2023-04-28T11:18:49;100262.28;;;20.26;74.44
25232;BME280;13176;51.140;6.290;2023-04-28T11:21:22;100303.75;;;20.41;73.89
25232;BME280;13176;51.140;6.290;2023-04-28T11:23:49;100235.09;;;20.23;74.81
25232;BME280;13176;51.140;6.290;2023-04-28T11:26:16;100239.00;;;20.31;73.54
25232;BME280;13176;51.140;6.290;2023-04-28T11:28:52;100236.41;;;19.86;73.21
25232;BME280;13176;51.140;6.290;2023-04-28T11:31:20;100302.47;;;20.76;72.00
25232;BME280;13176;51.140;6.290;2023-04-28T11:33:56;100296.06;;;20.80;73.03
25232;BME280;13176;51.140;6.290;2023-04-28T11:36:30;100302.09;;;20.68;72.31
25232;BME280;13176;51.140;6.290;2023-04-28T11:38:58;100243.19;;;20.63;71.73
25232;BME280;13176;51.140;6.290;2023-04-28T11:41:25;100226.53;;;20.61;71.41
25232;BME280;13176;51.140;6.290;2023-04-28T11:43:52;100289.25;;;21.04;70.20
25232;BME280;13176;51.140;6.290;2023-04-28T11:46:20;100287.50;;;21.31;69.82
25232;BME280;13176;51.140;6.290;2023-04-28T11:48:47;100267.63;;;22.15;67.79
25232;BME280;13176;51.140;6.290;2023-04-28T11:51:31;100298.47;;;22.30;65.42
25232;BME280;13176;51.140;6.290;2023-04-28T11:53:59;100255.88;;;22.44;65.58
25232;BME280;13176;51.140;6.290;2023-04-28T11:56:27;100192.75;;;21.96;65.02
25232;BME280;13176;51.140;6.290;2023-04-28T11:59:01;100266.06;;;23.36;63.47
25232;BME280;13176;51.140;6.290;2023-04-28T12:01:30;100238.22;;;23.29;59.17
25232;BME280;13176;51.140;6.290;2023-04-28T12:03:57;100288.28;;;23.24;59.09
25232;BME280;13176;51.140;6.290;2023-04-28T12:06:23;100262.31;;;23.15;60.55
25232;BME280;13176;51.140;6.290;2023-04-28T12:08:50;100211.69;;;22.79;61.34
25232;BME280;13176;51.140;6.290;2023-04-28T12:11:17;100288.84;;;24.33;58.43
25232;BME280;13176;51.140;6.290;2023-04-28T12:14:04;100251.91;;;24.62;55.49
25232;BME280;13176;51.140;6.290;2023-04-28T12:16:39;100249.03;;;24.54;55.76
25232;BME280;13176;51.140;6.290;2023-04-28T12:19:09;100173.66;;;24.50;54.11
25232;BME280;13176;51.140;6.290;2023-04-28T12:21:37;100279.03;;;26.08;51.78
25232;BME280;13176;51.140;6.290;2023-04-28T12:24:20;100269.19;;;26.69;49.66
25232;BME280;13176;51.140;6.290;2023-04-28T12:26:47;100252.19;;;25.67;50.79
25232;BME280;13176;51.140;6.290;2023-04-28T12:29:37;100269.78;;;25.27;51.56
25232;BME280;13176;51.140;6.290;2023-04-28T12:32:05;100255.22;;;23.86;55.11
25232;BME280;13176;51.140;6.290;2023-04-28T12:34:32;100252.88;;;23.34;58.05
25232;BME280;13176;51.140;6.290;2023-04-28T12:37:00;100198.25;;;23.29;56.98
25232;BME280;13176;51.140;6.290;2023-04-28T12:39:28;100177.81;;;22.81;57.55
25232;BME280;13176;51.140;6.290;2023-04-28T12:41:54;100257.00;;;23.15;57.75
25232;BME280;13176;51.140;6.290;2023-04-28T12:44:21;100235.75;;;23.49;57.05
25232;BME280;13176;51.140;6.290;2023-04-28T12:46:50;100251.66;;;23.15;57.69
25232;BME280;13176;51.140;6.290;2023-04-28T12:49:17;100167.53;;;22.64;57.67
25232;BME280;13176;51.140;6.290;2023-04-28T12:51:43;100242.97;;;22.88;57.36
25232;BME280;13176;51.140;6.290;2023-04-28T12:54:10;100174.03;;;22.96;55.15
25232;BME280;13176;51.140;6.290;2023-04-28T12:56:37;100226.41;;;23.44;56.38
25232;BME280;13176;51.140;6.290;2023-04-28T12:59:03;100240.50;;;24.04;53.79
25232;BME280;13176;51.140;6.290;2023-04-28T13:01:31;100239.06;;;24.11;53.30
25232;BME280;13176;51.140;6.290;2023-04-28T13:03:58;100240.06;;;23.86;53.86
25232;BME280;13176;51.140;6.290;2023-04-28T13:06:25;100256.69;;;23.43;54.78
25232;BME280;13176;51.140;6.290;2023-04-28T13:08:52;100260.31;;;22.94;56.23
25232;BME280;13176;51.140;6.290;2023-04-28T13:11:18;100265.13;;;22.51;57.28
25232;BME280;13176;51.140;6.290;2023-04-28T13:14:01;100165.31;;;21.96;57.40
25232;BME280;13176;51.140;6.290;2023-04-28T13:16:28;100265.28;;;23.23;56.85